createdAt,value
2022-10-08T00:01:06.915Z,13.68
2022-10-08T00:03:37.109Z,17.27
2022-10-08T00:06:07.969Z,17.95
2022-10-08T00:08:37.298Z,20.30
2022-10-08T00:11:07.087Z,16.25
2022-10-08T00:13:42.121Z,22.85
2022-10-08T00:16:16.789Z,15.63
2022-10-08T00:18:45.740Z,16.20
2022-10-08T00:21:17.885Z,14.70
2022-10-08T00:23:48.805Z,14.85
2022-10-08T00:26:18.118Z,20.30
2022-10-08T00:28:47.058Z,19.92
2022-10-08T00:31:17.737Z,18.55
2022-10-08T00:33:44.451Z,16.60
2022-10-08T00:36:12.660Z,16.27
2022-10-08T00:38:40.131Z,19.85
2022-10-08T00:41:16.321Z,15.25
2022-10-08T00:43:46.614Z,17.08
2022-10-08T00:46:30.653Z,12.95
2022-10-08T00:49:14.743Z,16.45
2022-10-08T00:51:44.675Z,15.45
2022-10-08T00:54:13.302Z,13.63
2022-10-08T00:56:41.237Z,15.38
2022-10-08T00:59:09.648Z,13.07
2022-10-08T01:01:36.957Z,19.35
2022-10-08T01:04:07.885Z,14.05
2022-10-08T01:06:49.582Z,15.10
2022-10-08T01:09:26.489Z,19.05
2022-10-08T01:12:11.102Z,14.15
2022-10-08T01:15:04.140Z,14.05
2022-10-08T01:17:51.082Z,22.33
2022-10-08T01:20:37.183Z,21.35
2022-10-08T01:23:19.683Z,16.30
2022-10-08T01:26:05.602Z,13.25
2022-10-08T01:28:40.647Z,18.00
2022-10-08T01:31:12.233Z,17.30
2022-10-08T01:34:02.973Z,17.88
2022-10-08T01:36:36.420Z,15.60
2022-10-08T01:39:09.027Z,18.90
2022-10-08T01:41:36.014Z,19.58
2022-10-08T01:44:12.456Z,14.00
2022-10-08T01:46:43.821Z,21.00
2022-10-08T01:49:17.311Z,14.52
2022-10-08T01:52:12.609Z,16.15
2022-10-08T01:54:43.076Z,15.80
2022-10-08T01:57:11.809Z,11.95
2022-10-08T01:59:55.051Z,17.83
2022-10-08T02:02:24.063Z,16.20
2022-10-08T02:04:53.297Z,14.63
2022-10-08T02:07:23.570Z,13.70
2022-10-08T02:09:53.755Z,16.90
2022-10-08T02:12:24.667Z,18.85
2022-10-08T02:14:54.056Z,19.48
2022-10-08T02:17:35.755Z,15.27
2022-10-08T02:20:11.370Z,18.85
2022-10-08T02:22:52.838Z,15.20
2022-10-08T02:25:57.177Z,14.77
2022-10-08T02:28:40.599Z,23.60
2022-10-08T02:31:15.098Z,15.15
2022-10-08T02:33:55.054Z,11.07
2022-10-08T02:36:26.848Z,14.65
2022-10-08T02:38:56.257Z,12.00
2022-10-08T02:41:28.619Z,15.13
2022-10-08T02:43:59.576Z,19.90
2022-10-08T02:46:29.401Z,10.75
2022-10-08T02:49:05.561Z,11.10
2022-10-08T02:51:37.365Z,17.63
2022-10-08T02:54:07.308Z,13.75
2022-10-08T02:56:48.239Z,14.32
2022-10-08T02:59:17.987Z,16.03
2022-10-08T03:01:59.869Z,17.08
2022-10-08T03:04:40.887Z,14.95
2022-10-08T03:07:08.542Z,18.08
2022-10-08T03:09:39.747Z,15.30
2022-10-08T03:12:07.473Z,14.38
2022-10-08T03:14:43.160Z,18.73
2022-10-08T03:17:13.854Z,13.70
2022-10-08T03:19:40.481Z,15.00
2022-10-08T03:22:08.040Z,14.02
2022-10-08T03:24:36.010Z,19.08
2022-10-08T03:27:03.446Z,20.60
2022-10-08T03:29:30.299Z,12.23
2022-10-08T03:31:56.982Z,17.60
2022-10-08T03:34:25.571Z,12.32
2022-10-08T03:36:52.243Z,16.77
2022-10-08T03:39:19.060Z,12.43
2022-10-08T03:41:45.691Z,13.25
2022-10-08T03:44:12.446Z,16.50
2022-10-08T03:46:39.267Z,16.27
2022-10-08T03:49:06.373Z,14.43
2022-10-08T03:51:33.067Z,13.85
2022-10-08T03:53:59.822Z,12.85
2022-10-08T03:56:26.757Z,14.63
2022-10-08T03:58:57.068Z,13.82
2022-10-08T04:01:25.117Z,16.00
2022-10-08T04:03:52.420Z,12.35
2022-10-08T04:06:19.762Z,17.27
2022-10-08T04:08:46.444Z,10.85
2022-10-08T04:11:15.323Z,14.40
2022-10-08T04:13:42.752Z,14.00
2022-10-08T04:16:17.217Z,15.10
2022-10-08T04:18:44.328Z,12.50
2022-10-08T04:21:13.714Z,13.40
2022-10-08T04:23:41.914Z,16.48
2022-10-08T04:26:10.892Z,13.60
2022-10-08T04:28:39.315Z,10.13
2022-10-08T04:31:17.057Z,13.27
2022-10-08T04:33:45.611Z,13.32
2022-10-08T04:36:21.018Z,14.43
2022-10-08T04:38:48.278Z,12.43
2022-10-08T04:41:17.599Z,10.90
2022-10-08T04:43:45.187Z,13.10
2022-10-08T04:46:14.507Z,16.20
2022-10-08T04:48:49.137Z,13.00
2022-10-08T04:51:16.496Z,15.93
2022-10-08T04:53:43.918Z,15.05
2022-10-08T04:56:23.312Z,19.25
2022-10-08T04:58:50.409Z,14.48
2022-10-08T05:01:19.686Z,17.20
2022-10-08T05:03:49.273Z,10.93
2022-10-08T05:06:17.656Z,15.60
2022-10-08T05:08:45.562Z,11.25
2022-10-08T05:11:12.838Z,16.30
2022-10-08T05:13:40.030Z,15.30
2022-10-08T05:16:13.198Z,15.30
2022-10-08T05:18:41.146Z,17.25
2022-10-08T05:21:11.488Z,20.23
2022-10-08T05:23:39.162Z,16.42
2022-10-08T05:26:31.888Z,16.83
2022-10-08T05:29:07.434Z,16.13
2022-10-08T05:31:36.754Z,23.48
2022-10-08T05:34:04.012Z,18.08
2022-10-08T05:36:32.663Z,15.85
2022-10-08T05:39:00.609Z,22.58
2022-10-08T05:41:30.294Z,15.25
2022-10-08T05:43:58.027Z,18.07
2022-10-08T05:46:26.781Z,19.67
2022-10-08T05:48:55.352Z,15.52
2022-10-08T05:51:22.826Z,15.23
2022-10-08T05:53:52.068Z,16.58
2022-10-08T05:56:21.908Z,22.98
2022-10-08T05:58:49.645Z,17.77
2022-10-08T06:01:22.375Z,26.63
2022-10-08T06:03:51.274Z,28.23
2022-10-08T06:06:18.552Z,23.20
2022-10-08T06:08:45.811Z,24.55
2022-10-08T06:11:12.567Z,32.47
2022-10-08T06:13:39.458Z,33.70
2022-10-08T06:16:09.454Z,42.95
2022-10-08T06:18:38.921Z,29.90
2022-10-08T06:21:10.698Z,39.40
2022-10-08T06:23:38.539Z,47.97
2022-10-08T06:26:06.996Z,45.80
2022-10-08T06:28:35.392Z,44.33
2022-10-08T06:31:02.239Z,38.85
2022-10-08T06:33:29.748Z,43.03
2022-10-08T06:35:56.365Z,47.33
2022-10-08T06:38:23.247Z,51.47
2022-10-08T06:40:49.909Z,44.92
2022-10-08T06:43:19.020Z,47.63
2022-10-08T06:45:46.960Z,53.95
2022-10-08T06:48:13.950Z,50.22
2022-10-08T06:50:41.165Z,46.92
2022-10-08T06:53:09.776Z,48.65
2022-10-08T06:55:37.405Z,42.05
2022-10-08T06:58:05.288Z,41.35
2022-10-08T07:00:32.729Z,49.22
2022-10-08T07:02:59.483Z,44.95
2022-10-08T07:05:26.158Z,47.45
2022-10-08T07:07:52.847Z,36.63
2022-10-08T07:10:19.977Z,41.00
2022-10-08T07:12:46.928Z,34.72
2022-10-08T07:15:13.945Z,42.35
2022-10-08T07:17:40.730Z,39.22
2022-10-08T07:20:08.060Z,40.97
2022-10-08T07:22:34.743Z,38.60
2022-10-08T07:25:01.652Z,34.92
2022-10-08T07:27:28.768Z,42.72
2022-10-08T07:29:55.548Z,40.97
2022-10-08T07:32:22.240Z,42.97
2022-10-08T07:34:48.914Z,42.08
2022-10-08T07:37:15.586Z,33.85
2022-10-08T07:39:42.270Z,35.03
2022-10-08T07:42:08.968Z,31.83
2022-10-08T07:44:35.634Z,35.58
2022-10-08T07:47:02.431Z,32.00
2022-10-08T07:49:30.193Z,31.52
2022-10-08T07:51:56.976Z,34.13
2022-10-08T07:54:23.882Z,26.73
2022-10-08T07:56:50.710Z,30.25
2022-10-08T07:59:17.408Z,34.35
2022-10-08T08:01:44.407Z,30.23
2022-10-08T08:04:11.984Z,31.42
2022-10-08T08:06:44.234Z,31.33
2022-10-08T08:09:11.886Z,30.63
2022-10-08T08:11:39.936Z,30.73
2022-10-08T08:14:07.085Z,31.80
2022-10-08T08:16:33.954Z,32.05
2022-10-08T08:19:02.008Z,34.25
2022-10-08T08:21:35.053Z,30.42
2022-10-08T08:24:10.930Z,32.45
2022-10-08T08:26:40.611Z,25.40
2022-10-08T08:29:13.258Z,31.98
2022-10-08T08:31:48.178Z,29.70
2022-10-08T08:34:18.137Z,28.15
2022-10-08T08:36:46.861Z,29.00
2022-10-08T08:39:22.967Z,25.35
2022-10-08T08:41:49.642Z,32.25
2022-10-08T08:44:44.855Z,29.63
2022-10-08T08:47:23.488Z,23.45
2022-10-08T08:49:55.059Z,27.73
2022-10-08T08:52:26.353Z,25.65
2022-10-08T08:54:54.650Z,24.80
2022-10-08T08:57:54.988Z,20.77
2022-10-08T09:00:24.476Z,20.45
2022-10-08T09:03:10.519Z,25.38
2022-10-08T09:05:42.430Z,20.38
2022-10-08T09:08:18.780Z,19.25
2022-10-08T09:10:58.313Z,16.15
2022-10-08T09:13:30.716Z,20.38
2022-10-08T09:15:58.353Z,12.90
2022-10-08T09:18:25.129Z,16.75
2022-10-08T09:20:51.957Z,18.95
2022-10-08T09:23:21.794Z,17.90
2022-10-08T09:26:00.499Z,10.82
2022-10-08T09:28:44.584Z,9.68
2022-10-08T09:31:25.461Z,13.90
2022-10-08T09:33:57.203Z,9.77
2022-10-08T09:36:33.280Z,12.38
2022-10-08T09:39:01.882Z,14.40
2022-10-08T09:41:30.225Z,14.23
2022-10-08T09:44:45.895Z,7.70
2022-10-08T09:47:15.520Z,8.60
2022-10-08T09:49:43.460Z,10.80
2022-10-08T09:52:27.320Z,10.15
2022-10-08T09:55:07.440Z,7.13
2022-10-08T09:57:43.881Z,10.82
2022-10-08T10:00:38.041Z,9.40
2022-10-08T10:03:07.044Z,10.77
2022-10-08T10:05:36.183Z,12.25
2022-10-08T10:08:03.472Z,10.05
2022-10-08T10:10:40.367Z,10.30
2022-10-08T10:13:13.910Z,7.05
2022-10-08T10:15:46.556Z,12.73
2022-10-08T10:18:21.006Z,6.90
2022-10-08T10:20:59.571Z,7.35
2022-10-08T10:23:41.268Z,5.55
2022-10-08T10:26:13.672Z,7.82
2022-10-08T10:29:00.766Z,10.13
2022-10-08T10:31:48.095Z,6.80
2022-10-08T10:34:25.171Z,4.03
2022-10-08T10:36:55.782Z,10.40
2022-10-08T10:39:45.466Z,9.93
2022-10-08T10:42:25.281Z,6.20
2022-10-08T10:45:00.375Z,12.68
2022-10-08T10:47:33.105Z,10.43
2022-10-08T10:50:03.488Z,7.85
2022-10-08T10:52:57.250Z,5.10
2022-10-08T10:55:54.720Z,7.25
2022-10-08T10:58:40.354Z,7.32
2022-10-08T11:01:55.123Z,11.15
2022-10-08T11:04:36.974Z,5.30
2022-10-08T11:10:09.363Z,5.55
2022-10-08T11:12:48.135Z,5.15
2022-10-08T11:15:38.598Z,6.68
2022-10-08T11:18:29.403Z,4.88
2022-10-08T11:21:19.095Z,8.38
2022-10-08T11:23:51.770Z,9.23
2022-10-08T11:27:06.122Z,9.25
2022-10-08T11:29:45.446Z,12.63
2022-10-08T11:32:15.453Z,6.07
2022-10-08T11:35:07.341Z,6.85
2022-10-08T11:40:28.446Z,9.00
2022-10-08T11:43:13.777Z,6.03
2022-10-08T11:45:42.689Z,4.15
2022-10-08T11:48:32.848Z,6.30
2022-10-08T11:51:33.068Z,5.65
2022-10-08T11:54:14.545Z,6.45
2022-10-08T11:56:51.643Z,7.50
2022-10-08T11:59:30.940Z,5.50
2022-10-08T12:02:00.591Z,9.25
2022-10-08T12:04:35.884Z,6.47
2022-10-08T12:07:08.164Z,5.45
2022-10-08T12:10:01.398Z,7.18
2022-10-08T12:12:48.989Z,5.57
2022-10-08T12:15:24.668Z,5.95
2022-10-08T12:17:58.629Z,7.22
2022-10-08T12:20:28.498Z,7.13
2022-10-08T12:23:02.755Z,5.18
2022-10-08T12:25:48.857Z,8.55
2022-10-08T12:28:35.712Z,6.95
2022-10-08T12:31:32.052Z,6.25
2022-10-08T12:34:14.333Z,5.13
2022-10-08T12:36:57.054Z,8.02
2022-10-08T12:39:35.006Z,5.22
2022-10-08T12:42:07.118Z,9.48
2022-10-08T12:44:47.315Z,10.25
2022-10-08T12:47:23.262Z,8.63
2022-10-08T12:50:24.277Z,6.30
2022-10-08T12:52:51.982Z,6.35
2022-10-08T12:55:22.360Z,6.97
2022-10-08T12:57:51.031Z,5.78
2022-10-08T13:00:22.842Z,6.95
2022-10-08T13:05:30.623Z,7.25
2022-10-08T13:07:58.210Z,4.82
2022-10-08T13:10:29.488Z,6.70
2022-10-08T13:13:00.977Z,5.82
2022-10-08T13:15:27.709Z,5.40
2022-10-08T13:17:54.683Z,7.88
2022-10-08T13:20:23.533Z,8.15
2022-10-08T13:22:51.076Z,10.10
2022-10-08T13:25:37.811Z,3.85
2022-10-08T13:28:16.139Z,6.25
2022-10-08T13:30:46.565Z,5.70
2022-10-08T13:33:22.070Z,5.47
2022-10-08T13:35:55.569Z,4.82
2022-10-08T13:38:26.737Z,7.20
2022-10-08T13:40:58.667Z,6.53
2022-10-08T13:43:26.321Z,5.00
2022-10-08T13:45:53.045Z,5.93
2022-10-08T13:48:19.761Z,6.80
2022-10-08T13:50:50.072Z,8.13
2022-10-08T13:53:19.609Z,12.38
2022-10-08T13:55:48.365Z,6.57
2022-10-08T13:58:19.348Z,5.07
2022-10-08T14:00:47.241Z,7.05
2022-10-08T14:03:14.190Z,4.95
2022-10-08T14:05:43.880Z,7.63
2022-10-08T14:08:22.419Z,4.22
2022-10-08T14:10:49.552Z,3.80
2022-10-08T14:13:16.493Z,4.25
2022-10-08T14:15:43.211Z,11.02
2022-10-08T14:18:09.874Z,5.90
2022-10-08T14:20:37.258Z,7.75
2022-10-08T14:23:03.961Z,9.63
2022-10-08T14:25:31.024Z,5.80
2022-10-08T14:28:01.268Z,5.88
2022-10-08T14:30:28.385Z,6.05
2022-10-08T14:32:55.522Z,5.05
2022-10-08T14:35:22.715Z,7.15
2022-10-08T14:37:50.030Z,7.85
2022-10-08T14:40:22.403Z,6.38
2022-10-08T14:42:49.914Z,9.05
2022-10-08T14:45:17.190Z,3.45
2022-10-08T14:47:43.888Z,5.97
2022-10-08T14:50:10.518Z,4.18
2022-10-08T14:52:41.750Z,6.40
2022-10-08T14:55:10.258Z,6.40
2022-10-08T14:57:36.870Z,5.20
2022-10-08T15:00:04.281Z,6.72
2022-10-08T15:02:30.976Z,5.97
2022-10-08T15:04:57.614Z,6.15
2022-10-08T15:07:24.397Z,6.10
2022-10-08T15:09:51.069Z,7.35
2022-10-08T15:12:17.718Z,6.13
2022-10-08T15:14:44.381Z,6.35
2022-10-08T15:17:11.039Z,6.97
2022-10-08T15:19:37.798Z,6.15
2022-10-08T15:22:04.608Z,9.18
2022-10-08T15:24:31.339Z,8.63
2022-10-08T15:26:58.214Z,6.32
2022-10-08T15:29:24.947Z,4.63
2022-10-08T15:31:52.155Z,3.88
2022-10-08T15:34:19.985Z,6.43
2022-10-08T15:36:47.437Z,7.47
2022-10-08T15:39:17.236Z,5.10
2022-10-08T15:41:49.143Z,6.07
2022-10-08T15:44:18.271Z,4.40
2022-10-08T15:46:49.004Z,6.13
2022-10-08T15:49:16.226Z,5.60
2022-10-08T15:51:43.161Z,8.27
2022-10-08T15:54:09.853Z,7.65
2022-10-08T15:56:36.526Z,5.90
2022-10-08T15:59:03.840Z,9.15
2022-10-08T16:01:31.011Z,5.93
2022-10-08T16:03:58.576Z,8.27
2022-10-08T16:06:35.846Z,7.53
2022-10-08T16:09:03.750Z,5.93
2022-10-08T16:11:32.639Z,7.35
2022-10-08T16:14:00.429Z,7.78
2022-10-08T16:16:27.319Z,6.25
2022-10-08T16:19:00.283Z,7.10
2022-10-08T16:21:28.627Z,4.90
2022-10-08T16:23:56.236Z,5.53
2022-10-08T16:26:23.012Z,5.15
2022-10-08T16:28:57.677Z,8.23
2022-10-08T16:31:26.145Z,7.88
2022-10-08T16:33:57.641Z,4.93
2022-10-08T16:36:25.236Z,8.80
2022-10-08T16:38:53.138Z,9.25
2022-10-08T16:41:28.667Z,4.15
2022-10-08T16:43:58.008Z,8.32
2022-10-08T16:46:29.981Z,5.20
2022-10-08T16:49:01.695Z,6.05
2022-10-08T16:54:01.389Z,7.63
2022-10-08T16:56:32.751Z,10.75
2022-10-08T16:59:06.021Z,7.57
2022-10-08T17:01:34.107Z,11.00
2022-10-08T17:04:01.021Z,10.52
2022-10-08T17:06:28.987Z,7.88
2022-10-08T17:08:55.655Z,6.15
2022-10-08T17:11:22.370Z,5.60
2022-10-08T17:13:54.243Z,8.48
2022-10-08T17:16:22.518Z,6.07
2022-10-08T17:18:57.185Z,7.00
2022-10-08T17:21:24.129Z,5.35
2022-10-08T17:23:51.237Z,5.78
2022-10-08T17:26:25.422Z,7.00
2022-10-08T17:28:52.549Z,4.22
2022-10-08T17:31:28.966Z,7.55
2022-10-08T17:33:55.976Z,9.55
2022-10-08T17:36:25.796Z,6.85
2022-10-08T17:38:54.717Z,4.90
2022-10-08T17:41:25.547Z,6.00
2022-10-08T17:43:55.550Z,8.65
2022-10-08T17:46:45.540Z,7.40
2022-10-08T17:49:14.786Z,5.72
2022-10-08T17:51:41.742Z,5.70
2022-10-08T17:54:12.368Z,6.10
2022-10-08T17:56:39.066Z,7.15
2022-10-08T17:59:05.730Z,8.05
2022-10-08T18:01:34.997Z,5.35
2022-10-08T18:04:06.832Z,9.98
2022-10-08T18:06:35.562Z,6.65
2022-10-08T18:09:05.307Z,8.75
2022-10-08T18:11:34.626Z,7.57
2022-10-08T18:14:01.960Z,8.63
2022-10-08T18:16:28.710Z,6.68
2022-10-08T18:18:55.557Z,4.97
2022-10-08T18:21:22.714Z,11.80
2022-10-08T18:23:50.177Z,10.82
2022-10-08T18:26:21.698Z,6.00
2022-10-08T18:28:54.196Z,7.43
2022-10-08T18:31:22.685Z,4.78
2022-10-08T18:33:52.182Z,8.88
2022-10-08T18:36:21.810Z,7.93
2022-10-08T18:38:53.337Z,8.35
2022-10-08T18:41:25.980Z,7.82
2022-10-08T18:43:53.041Z,8.13
2022-10-08T18:46:21.296Z,10.02
2022-10-08T18:48:48.544Z,12.32
2022-10-08T18:51:17.859Z,12.75
2022-10-08T18:53:46.219Z,8.88
2022-10-08T18:56:28.986Z,8.75
2022-10-08T18:59:01.703Z,8.55
2022-10-08T19:01:31.314Z,15.63
2022-10-08T19:04:00.223Z,9.05
2022-10-08T19:06:29.733Z,9.88
2022-10-08T19:08:58.395Z,10.93
2022-10-08T19:11:30.098Z,13.52
2022-10-08T19:13:56.848Z,18.97
2022-10-08T19:16:23.637Z,8.75
2022-10-08T19:19:02.300Z,8.98
2022-10-08T19:21:30.562Z,14.30
2022-10-08T19:23:58.143Z,6.95
2022-10-08T19:26:26.586Z,10.70
2022-10-08T19:28:54.551Z,9.00
2022-10-08T19:31:27.086Z,9.10
2022-10-08T19:33:56.847Z,7.82
2022-10-08T19:36:25.796Z,11.38
2022-10-08T19:38:57.641Z,9.77
2022-10-08T19:41:25.583Z,13.32
2022-10-08T19:43:53.976Z,9.93
2022-10-08T19:46:21.518Z,10.93
2022-10-08T19:48:53.498Z,12.23
2022-10-08T19:51:21.586Z,12.43
2022-10-08T19:53:49.459Z,14.18
2022-10-08T19:56:17.611Z,14.60
2022-10-08T19:58:48.456Z,12.57
2022-10-08T20:01:20.560Z,15.23
2022-10-08T20:06:24.105Z,11.68
2022-10-08T20:08:56.950Z,16.88
2022-10-08T20:11:24.424Z,14.55
2022-10-08T20:13:52.643Z,13.70
2022-10-08T20:16:26.056Z,10.68
2022-10-08T20:19:01.261Z,18.13
2022-10-08T20:21:30.386Z,18.33
2022-10-08T20:23:57.698Z,21.35
2022-10-08T20:26:29.825Z,23.42
2022-10-08T20:29:08.637Z,24.48
2022-10-08T20:31:41.223Z,22.95
2022-10-08T20:34:13.073Z,29.50
2022-10-08T20:36:40.013Z,21.70
2022-10-08T20:39:07.218Z,24.55
2022-10-08T20:41:33.878Z,21.65
2022-10-08T20:44:02.746Z,27.42
2022-10-08T20:46:30.407Z,22.60
2022-10-08T20:48:57.744Z,22.02
2022-10-08T20:51:26.073Z,19.60
2022-10-08T20:53:58.196Z,21.55
2022-10-08T20:56:25.906Z,19.13
2022-10-08T20:58:53.216Z,21.40
2022-10-08T21:01:23.527Z,17.70
2022-10-08T21:03:50.993Z,17.38
2022-10-08T21:06:26.210Z,18.20
2022-10-08T21:08:54.484Z,22.27
2022-10-08T21:11:24.019Z,18.88
2022-10-08T21:13:51.016Z,15.75
2022-10-08T21:16:24.841Z,18.35
2022-10-08T21:18:54.495Z,17.30
2022-10-08T21:21:21.338Z,14.13
2022-10-08T21:23:49.006Z,15.57
2022-10-08T21:26:18.955Z,16.10
2022-10-08T21:28:47.405Z,12.88
2022-10-08T21:31:15.465Z,13.43
2022-10-08T21:33:44.783Z,17.15
2022-10-08T21:36:35.721Z,16.27
2022-10-08T21:39:05.070Z,13.40
2022-10-08T21:41:33.743Z,13.43
2022-10-08T21:44:03.395Z,12.88
2022-10-08T21:46:32.421Z,18.02
2022-10-08T21:49:01.570Z,19.77
2022-10-08T21:51:29.888Z,16.92
2022-10-08T21:53:59.491Z,20.90
2022-10-08T21:56:29.056Z,15.73
2022-10-08T21:58:59.344Z,16.33
2022-10-08T22:01:29.778Z,17.52
2022-10-08T22:03:58.918Z,16.90
2022-10-08T22:06:27.406Z,18.70
2022-10-08T22:08:54.709Z,15.18
2022-10-08T22:11:22.083Z,11.15
2022-10-08T22:13:49.340Z,16.58
2022-10-08T22:16:18.893Z,13.07
2022-10-08T22:18:46.135Z,14.43
2022-10-08T22:21:16.029Z,13.50
2022-10-08T22:23:43.248Z,15.68
2022-10-08T22:26:13.341Z,15.52
2022-10-08T22:28:40.897Z,16.75
2022-10-08T22:31:09.480Z,13.38
2022-10-08T22:33:36.867Z,17.98
2022-10-08T22:36:09.301Z,18.67
2022-10-08T22:38:37.841Z,16.25
2022-10-08T22:41:07.046Z,16.52
2022-10-08T22:43:34.824Z,18.73
2022-10-08T22:46:07.079Z,13.77
2022-10-08T22:48:34.271Z,16.90
2022-10-08T22:51:07.350Z,15.68
2022-10-08T22:53:34.637Z,11.15
2022-10-08T22:56:05.067Z,16.13
2022-10-08T22:58:32.587Z,12.88
2022-10-08T23:01:11.026Z,16.50
2022-10-08T23:03:38.100Z,13.50
2022-10-08T23:06:07.833Z,14.75
2022-10-08T23:08:35.798Z,15.57
2022-10-08T23:11:03.544Z,15.35
2022-10-08T23:13:31.766Z,15.27
2022-10-08T23:16:03.651Z,15.35
2022-10-08T23:18:32.102Z,14.30
2022-10-08T23:21:04.812Z,15.48
2022-10-08T23:23:32.685Z,11.80
2022-10-08T23:26:02.153Z,13.77
2022-10-08T23:28:29.736Z,17.13
2022-10-08T23:31:04.352Z,17.92
2022-10-08T23:33:31.209Z,14.98
2022-10-08T23:35:58.063Z,16.27
2022-10-08T23:38:24.793Z,18.50
2022-10-08T23:40:51.555Z,15.77
2022-10-08T23:43:18.292Z,18.70
2022-10-08T23:45:45.011Z,14.50
2022-10-08T23:48:11.789Z,17.83
2022-10-08T23:50:39.026Z,15.48
2022-10-08T23:53:06.035Z,21.02
2022-10-08T23:55:32.871Z,15.95
2022-10-08T23:57:59.522Z,15.10
